sensor_id;sensor_type;location;lat;lon;timestamp;temperature;humidity
21355;DHT22;10835;50.148;19.760;2022-09-09T00:00:28;29.30;58.20
21355;DHT22;10835;50.148;19.760;2022-09-09T00:03:02;29.20;58.70
21355;DHT22;10835;50.148;19.760;2022-09-09T00:05:41;29.00;59.10
21355;DHT22;10835;50.148;19.760;2022-09-09T00:08:18;29.30;59.10
21355;DHT22;10835;50.148;19.760;2022-09-09T00:10:51;29.60;58.50
21355;DHT22;10835;50.148;19.760;2022-09-09T00:13:25;29.60;57.90
21355;DHT22;10835;50.148;19.760;2022-09-09T00:16:02;29.70;58.00
21355;DHT22;10835;50.148;19.760;2022-09-09T00:18:51;29.90;57.40
21355;DHT22;10835;50.148;19.760;2022-09-09T00:21:23;29.90;57.00
21355;DHT22;10835;50.148;19.760;2022-09-09T00:23:54;30.00;57.20
21355;DHT22;10835;50.148;19.760;2022-09-09T00:26:29;30.00;57.20
21355;DHT22;10835;50.148;19.760;2022-09-09T00:29:04;29.80;57.40
21355;DHT22;10835;50.148;19.760;2022-09-09T00:31:34;29.80;57.20
21355;DHT22;10835;50.148;19.760;2022-09-09T00:34:11;29.90;57.00
21355;DHT22;10835;50.148;19.760;2022-09-09T00:36:41;30.00;57.50
21355;DHT22;10835;50.148;19.760;2022-09-09T00:39:17;30.00;56.80
21355;DHT22;10835;50.148;19.760;2022-09-09T00:44:37;29.80;56.30
21355;DHT22;10835;50.148;19.760;2022-09-09T00:47:20;29.30;57.30
21355;DHT22;10835;50.148;19.760;2022-09-09T00:50:00;29.40;57.70
21355;DHT22;10835;50.148;19.760;2022-09-09T00:52:39;29.30;57.60
21355;DHT22;10835;50.148;19.760;2022-09-09T00:55:16;29.30;57.40
21355;DHT22;10835;50.148;19.760;2022-09-09T00:57:50;29.50;57.30
21355;DHT22;10835;50.148;19.760;2022-09-09T01:00:22;29.60;57.00
21355;DHT22;10835;50.148;19.760;2022-09-09T01:03:17;29.60;56.50
21355;DHT22;10835;50.148;19.760;2022-09-09T01:05:54;29.70;56.80
21355;DHT22;10835;50.148;19.760;2022-09-09T01:08:39;29.80;56.60
21355;DHT22;10835;50.148;19.760;2022-09-09T01:11:15;29.60;56.60
21355;DHT22;10835;50.148;19.760;2022-09-09T01:13:45;29.50;57.30
21355;DHT22;10835;50.148;19.760;2022-09-09T01:16:16;29.40;57.50
21355;DHT22;10835;50.148;19.760;2022-09-09T01:18:48;29.40;56.80
21355;DHT22;10835;50.148;19.760;2022-09-09T01:21:24;29.50;56.50
21355;DHT22;10835;50.148;19.760;2022-09-09T01:24:09;29.60;56.20
21355;DHT22;10835;50.148;19.760;2022-09-09T01:26:56;29.60;56.10
21355;DHT22;10835;50.148;19.760;2022-09-09T01:29:26;29.70;55.90
21355;DHT22;10835;50.148;19.760;2022-09-09T01:31:56;29.20;56.20
21355;DHT22;10835;50.148;19.760;2022-09-09T01:34:27;29.60;56.50
21355;DHT22;10835;50.148;19.760;2022-09-09T01:37:00;29.60;56.50
21355;DHT22;10835;50.148;19.760;2022-09-09T01:39:32;29.70;56.20
21355;DHT22;10835;50.148;19.760;2022-09-09T01:42:07;29.10;56.20
21355;DHT22;10835;50.148;19.760;2022-09-09T01:44:37;29.10;56.70
21355;DHT22;10835;50.148;19.760;2022-09-09T01:47:05;28.70;57.10
21355;DHT22;10835;50.148;19.760;2022-09-09T01:49:39;28.90;57.50
21355;DHT22;10835;50.148;19.760;2022-09-09T01:52:17;28.80;57.50
21355;DHT22;10835;50.148;19.760;2022-09-09T01:54:45;29.20;57.40
21355;DHT22;10835;50.148;19.760;2022-09-09T01:57:23;29.30;57.30
21355;DHT22;10835;50.148;19.760;2022-09-09T02:00:01;29.70;56.90
21355;DHT22;10835;50.148;19.760;2022-09-09T02:02:47;29.70;56.30
21355;DHT22;10835;50.148;19.760;2022-09-09T02:05:30;30.00;55.90
21355;DHT22;10835;50.148;19.760;2022-09-09T02:08:15;30.10;55.60
21355;DHT22;10835;50.148;19.760;2022-09-09T02:10:58;29.90;56.00
21355;DHT22;10835;50.148;19.760;2022-09-09T02:13:54;30.10;56.00
21355;DHT22;10835;50.148;19.760;2022-09-09T02:16:27;30.20;55.60
21355;DHT22;10835;50.148;19.760;2022-09-09T02:19:00;30.00;56.00
21355;DHT22;10835;50.148;19.760;2022-09-09T02:21:40;30.10;55.50
21355;DHT22;10835;50.148;19.760;2022-09-09T02:24:11;30.10;55.70
21355;DHT22;10835;50.148;19.760;2022-09-09T02:26:56;30.00;55.50
21355;DHT22;10835;50.148;19.760;2022-09-09T02:29:30;30.20;55.40
21355;DHT22;10835;50.148;19.760;2022-09-09T02:32:04;30.40;55.00
21355;DHT22;10835;50.148;19.760;2022-09-09T02:34:43;30.30;54.80
21355;DHT22;10835;50.148;19.760;2022-09-09T02:37:12;30.30;54.90
21355;DHT22;10835;50.148;19.760;2022-09-09T02:39:47;30.30;54.70
21355;DHT22;10835;50.148;19.760;2022-09-09T02:42:19;30.40;54.70
21355;DHT22;10835;50.148;19.760;2022-09-09T02:44:53;30.50;54.50
21355;DHT22;10835;50.148;19.760;2022-09-09T02:47:29;30.00;54.80
21355;DHT22;10835;50.148;19.760;2022-09-09T02:50:08;30.00;55.20
21355;DHT22;10835;50.148;19.760;2022-09-09T02:52:46;29.90;55.20
21355;DHT22;10835;50.148;19.760;2022-09-09T02:55:20;30.00;55.60
21355;DHT22;10835;50.148;19.760;2022-09-09T02:57:56;29.80;55.10
21355;DHT22;10835;50.148;19.760;2022-09-09T03:00:29;29.70;55.70
21355;DHT22;10835;50.148;19.760;2022-09-09T03:03:00;29.70;55.70
21355;DHT22;10835;50.148;19.760;2022-09-09T03:05:29;29.70;55.70
21355;DHT22;10835;50.148;19.760;2022-09-09T03:07:57;29.60;55.90
21355;DHT22;10835;50.148;19.760;2022-09-09T03:10:25;29.60;56.00
21355;DHT22;10835;50.148;19.760;2022-09-09T03:12:53;29.50;56.00
21355;DHT22;10835;50.148;19.760;2022-09-09T03:15:22;29.40;56.20
21355;DHT22;10835;50.148;19.760;2022-09-09T03:17:52;29.50;56.60
21355;DHT22;10835;50.148;19.760;2022-09-09T03:20:21;29.40;56.00
21355;DHT22;10835;50.148;19.760;2022-09-09T03:22:50;29.10;56.70
21355;DHT22;10835;50.148;19.760;2022-09-09T03:25:18;29.40;56.50
21355;DHT22;10835;50.148;19.760;2022-09-09T03:27:46;29.50;56.00
21355;DHT22;10835;50.148;19.760;2022-09-09T03:30:15;29.10;56.10
21355;DHT22;10835;50.148;19.760;2022-09-09T03:32:43;29.00;56.40
21355;DHT22;10835;50.148;19.760;2022-09-09T03:35:16;29.10;56.80
21355;DHT22;10835;50.148;19.760;2022-09-09T03:37:45;29.30;56.50
21355;DHT22;10835;50.148;19.760;2022-09-09T03:40:14;29.10;56.40
21355;DHT22;10835;50.148;19.760;2022-09-09T03:42:45;29.10;56.50
21355;DHT22;10835;50.148;19.760;2022-09-09T03:45:13;29.20;56.50
21355;DHT22;10835;50.148;19.760;2022-09-09T03:47:41;29.00;56.30
21355;DHT22;10835;50.148;19.760;2022-09-09T03:50:09;29.30;56.40
21355;DHT22;10835;50.148;19.760;2022-09-09T03:52:44;29.10;56.30
21355;DHT22;10835;50.148;19.760;2022-09-09T03:55:18;29.10;56.70
21355;DHT22;10835;50.148;19.760;2022-09-09T03:57:46;29.10;56.80
21355;DHT22;10835;50.148;19.760;2022-09-09T04:00:15;29.00;56.50
21355;DHT22;10835;50.148;19.760;2022-09-09T04:02:47;28.60;56.70
21355;DHT22;10835;50.148;19.760;2022-09-09T04:05:17;28.90;57.10
21355;DHT22;10835;50.148;19.760;2022-09-09T04:07:48;29.00;56.60
21355;DHT22;10835;50.148;19.760;2022-09-09T04:10:18;28.60;56.70
21355;DHT22;10835;50.148;19.760;2022-09-09T04:12:46;28.80;56.70
21355;DHT22;10835;50.148;19.760;2022-09-09T04:15:15;28.70;56.80
21355;DHT22;10835;50.148;19.760;2022-09-09T04:17:47;29.00;56.50
21355;DHT22;10835;50.148;19.760;2022-09-09T04:20:15;28.80;56.80
21355;DHT22;10835;50.148;19.760;2022-09-09T04:22:44;28.80;56.80
21355;DHT22;10835;50.148;19.760;2022-09-09T04:25:14;29.00;56.70
21355;DHT22;10835;50.148;19.760;2022-09-09T04:27:43;29.40;55.70
21355;DHT22;10835;50.148;19.760;2022-09-09T04:30:12;29.40;55.70
21355;DHT22;10835;50.148;19.760;2022-09-09T04:32:41;29.30;55.90
21355;DHT22;10835;50.148;19.760;2022-09-09T04:35:09;29.40;55.60
21355;DHT22;10835;50.148;19.760;2022-09-09T04:37:37;29.20;55.40
21355;DHT22;10835;50.148;19.760;2022-09-09T04:40:06;29.50;55.30
21355;DHT22;10835;50.148;19.760;2022-09-09T04:42:41;29.40;55.50
21355;DHT22;10835;50.148;19.760;2022-09-09T04:45:12;29.50;55.50
21355;DHT22;10835;50.148;19.760;2022-09-09T04:47:41;29.50;55.10
21355;DHT22;10835;50.148;19.760;2022-09-09T04:50:10;29.20;55.10
21355;DHT22;10835;50.148;19.760;2022-09-09T04:52:38;29.10;55.70
21355;DHT22;10835;50.148;19.760;2022-09-09T04:55:08;29.20;56.10
21355;DHT22;10835;50.148;19.760;2022-09-09T04:57:37;29.00;55.90
21355;DHT22;10835;50.148;19.760;2022-09-09T05:00:08;29.40;55.40
21355;DHT22;10835;50.148;19.760;2022-09-09T05:02:39;28.90;55.30
21355;DHT22;10835;50.148;19.760;2022-09-09T05:05:09;28.80;55.90
21355;DHT22;10835;50.148;19.760;2022-09-09T05:07:39;29.10;55.70
21355;DHT22;10835;50.148;19.760;2022-09-09T05:10:09;29.30;55.20
21355;DHT22;10835;50.148;19.760;2022-09-09T05:12:37;29.20;55.30
21355;DHT22;10835;50.148;19.760;2022-09-09T05:15:08;29.50;55.10
21355;DHT22;10835;50.148;19.760;2022-09-09T05:17:38;29.20;54.40
21355;DHT22;10835;50.148;19.760;2022-09-09T05:20:07;29.40;55.00
21355;DHT22;10835;50.148;19.760;2022-09-09T05:22:42;29.60;54.70
21355;DHT22;10835;50.148;19.760;2022-09-09T05:25:10;29.70;54.10
21355;DHT22;10835;50.148;19.760;2022-09-09T05:27:39;29.80;54.00
21355;DHT22;10835;50.148;19.760;2022-09-09T05:30:10;30.10;53.80
21355;DHT22;10835;50.148;19.760;2022-09-09T05:32:38;30.10;54.00
21355;DHT22;10835;50.148;19.760;2022-09-09T05:35:08;30.10;53.80
21355;DHT22;10835;50.148;19.760;2022-09-09T05:37:39;30.20;53.80
21355;DHT22;10835;50.148;19.760;2022-09-09T05:40:08;30.20;53.80
21355;DHT22;10835;50.148;19.760;2022-09-09T05:42:41;30.20;53.70
21355;DHT22;10835;50.148;19.760;2022-09-09T05:45:10;30.00;53.40
21355;DHT22;10835;50.148;19.760;2022-09-09T05:47:38;30.00;53.80
21355;DHT22;10835;50.148;19.760;2022-09-09T05:50:09;29.90;54.70
21355;DHT22;10835;50.148;19.760;2022-09-09T05:52:37;30.20;54.50
21355;DHT22;10835;50.148;19.760;2022-09-09T05:55:07;30.10;54.30
21355;DHT22;10835;50.148;19.760;2022-09-09T05:57:35;30.20;54.20
21355;DHT22;10835;50.148;19.760;2022-09-09T06:00:05;30.20;54.20
21355;DHT22;10835;50.148;19.760;2022-09-09T06:02:40;29.90;54.20
21355;DHT22;10835;50.148;19.760;2022-09-09T06:05:12;29.50;54.20
21355;DHT22;10835;50.148;19.760;2022-09-09T06:07:41;29.30;55.50
21355;DHT22;10835;50.148;19.760;2022-09-09T06:10:12;29.60;55.40
21355;DHT22;10835;50.148;19.760;2022-09-09T06:12:41;29.40;54.80
21355;DHT22;10835;50.148;19.760;2022-09-09T06:15:09;29.40;55.70
21355;DHT22;10835;50.148;19.760;2022-09-09T06:17:38;29.40;55.10
21355;DHT22;10835;50.148;19.760;2022-09-09T06:20:10;29.60;55.20
21355;DHT22;10835;50.148;19.760;2022-09-09T06:22:39;29.60;55.40
21355;DHT22;10835;50.148;19.760;2022-09-09T06:25:08;29.70;55.10
21355;DHT22;10835;50.148;19.760;2022-09-09T06:27:41;29.60;55.00
21355;DHT22;10835;50.148;19.760;2022-09-09T06:30:10;29.60;54.10
21355;DHT22;10835;50.148;19.760;2022-09-09T06:32:42;29.30;54.40
21355;DHT22;10835;50.148;19.760;2022-09-09T06:35:11;28.90;54.90
21355;DHT22;10835;50.148;19.760;2022-09-09T06:37:44;29.00;54.80
21355;DHT22;10835;50.148;19.760;2022-09-09T06:40:17;29.60;55.10
21355;DHT22;10835;50.148;19.760;2022-09-09T06:42:45;29.90;54.40
21355;DHT22;10835;50.148;19.760;2022-09-09T06:45:28;29.70;53.60
21355;DHT22;10835;50.148;19.760;2022-09-09T06:47:58;29.50;54.30
21355;DHT22;10835;50.148;19.760;2022-09-09T06:50:30;29.70;54.50
21355;DHT22;10835;50.148;19.760;2022-09-09T06:52:58;29.90;53.00
21355;DHT22;10835;50.148;19.760;2022-09-09T06:55:27;29.80;53.20
21355;DHT22;10835;50.148;19.760;2022-09-09T06:57:55;29.60;53.50
21355;DHT22;10835;50.148;19.760;2022-09-09T07:00:23;29.70;53.30
21355;DHT22;10835;50.148;19.760;2022-09-09T07:02:52;29.50;52.90
21355;DHT22;10835;50.148;19.760;2022-09-09T07:05:22;29.40;53.40
21355;DHT22;10835;50.148;19.760;2022-09-09T07:07:54;29.60;53.70
21355;DHT22;10835;50.148;19.760;2022-09-09T07:10:22;29.30;54.30
21355;DHT22;10835;50.148;19.760;2022-09-09T07:12:50;29.90;54.00
21355;DHT22;10835;50.148;19.760;2022-09-09T07:15:22;29.80;53.50
21355;DHT22;10835;50.148;19.760;2022-09-09T07:17:51;29.90;53.30
21355;DHT22;10835;50.148;19.760;2022-09-09T07:20:20;29.90;53.90
21355;DHT22;10835;50.148;19.760;2022-09-09T07:22:49;30.10;53.30
21355;DHT22;10835;50.148;19.760;2022-09-09T07:25:19;29.90;53.50
21355;DHT22;10835;50.148;19.760;2022-09-09T07:27:47;29.90;53.50
21355;DHT22;10835;50.148;19.760;2022-09-09T07:30:16;30.20;53.30
21355;DHT22;10835;50.148;19.760;2022-09-09T07:32:53;30.30;52.70
21355;DHT22;10835;50.148;19.760;2022-09-09T07:35:24;30.30;52.50
21355;DHT22;10835;50.148;19.760;2022-09-09T07:37:53;30.20;52.50
21355;DHT22;10835;50.148;19.760;2022-09-09T07:40:24;30.10;53.30
21355;DHT22;10835;50.148;19.760;2022-09-09T07:42:52;30.30;52.90
21355;DHT22;10835;50.148;19.760;2022-09-09T07:45:21;30.40;52.70
21355;DHT22;10835;50.148;19.760;2022-09-09T07:47:49;30.90;52.70
21355;DHT22;10835;50.148;19.760;2022-09-09T07:50:17;31.10;51.60
21355;DHT22;10835;50.148;19.760;2022-09-09T07:52:45;31.20;51.80
21355;DHT22;10835;50.148;19.760;2022-09-09T07:55:14;31.80;50.60
21355;DHT22;10835;50.148;19.760;2022-09-09T07:57:43;31.60;50.00
21355;DHT22;10835;50.148;19.760;2022-09-09T08:00:13;31.60;50.40
21355;DHT22;10835;50.148;19.760;2022-09-09T08:02:47;31.30;50.60
21355;DHT22;10835;50.148;19.760;2022-09-09T08:05:16;31.50;50.10
21355;DHT22;10835;50.148;19.760;2022-09-09T08:07:45;31.50;50.90
21355;DHT22;10835;50.148;19.760;2022-09-09T08:10:14;31.40;50.90
21355;DHT22;10835;50.148;19.760;2022-09-09T08:12:45;31.20;51.30
21355;DHT22;10835;50.148;19.760;2022-09-09T08:15:33;30.90;50.60
21355;DHT22;10835;50.148;19.760;2022-09-09T08:18:03;31.30;51.20
21355;DHT22;10835;50.148;19.760;2022-09-09T08:20:31;31.10;50.40
21355;DHT22;10835;50.148;19.760;2022-09-09T08:23:00;31.10;49.90
21355;DHT22;10835;50.148;19.760;2022-09-09T08:25:29;31.30;50.10
21355;DHT22;10835;50.148;19.760;2022-09-09T08:28:00;31.50;49.90
21355;DHT22;10835;50.148;19.760;2022-09-09T08:30:29;31.60;49.60
21355;DHT22;10835;50.148;19.760;2022-09-09T08:32:58;31.90;50.10
21355;DHT22;10835;50.148;19.760;2022-09-09T08:35:27;31.60;50.30
21355;DHT22;10835;50.148;19.760;2022-09-09T08:37:59;31.60;50.30
21355;DHT22;10835;50.148;19.760;2022-09-09T08:40:36;31.70;49.20
21355;DHT22;10835;50.148;19.760;2022-09-09T08:43:09;31.90;49.50
21355;DHT22;10835;50.148;19.760;2022-09-09T08:45:43;31.50;48.50
21355;DHT22;10835;50.148;19.760;2022-09-09T08:48:30;31.80;49.50
21355;DHT22;10835;50.148;19.760;2022-09-09T08:51:01;31.70;49.20
21355;DHT22;10835;50.148;19.760;2022-09-09T08:53:39;31.80;48.80
21355;DHT22;10835;50.148;19.760;2022-09-09T08:56:14;31.50;48.50
21355;DHT22;10835;50.148;19.760;2022-09-09T08:58:50;32.00;48.10
21355;DHT22;10835;50.148;19.760;2022-09-09T09:02:00;31.90;48.30
21355;DHT22;10835;50.148;19.760;2022-09-09T09:05:07;32.00;48.70
21355;DHT22;10835;50.148;19.760;2022-09-09T09:07:47;31.70;47.70
21355;DHT22;10835;50.148;19.760;2022-09-09T09:10:35;31.60;47.10
21355;DHT22;10835;50.148;19.760;2022-09-09T09:13:14;31.80;46.60
21355;DHT22;10835;50.148;19.760;2022-09-09T09:15:50;31.80;48.10
21355;DHT22;10835;50.148;19.760;2022-09-09T09:18:19;32.20;48.90
21355;DHT22;10835;50.148;19.760;2022-09-09T09:20:56;32.00;47.10
21355;DHT22;10835;50.148;19.760;2022-09-09T09:23:34;32.20;48.00
21355;DHT22;10835;50.148;19.760;2022-09-09T09:26:10;32.60;48.30
21355;DHT22;10835;50.148;19.760;2022-09-09T09:28:42;32.40;46.70
21355;DHT22;10835;50.148;19.760;2022-09-09T09:31:16;32.50;46.00
21355;DHT22;10835;50.148;19.760;2022-09-09T09:33:49;32.20;46.50
21355;DHT22;10835;50.148;19.760;2022-09-09T09:36:24;32.40;46.20
21355;DHT22;10835;50.148;19.760;2022-09-09T09:38:55;32.40;47.10
21355;DHT22;10835;50.148;19.760;2022-09-09T09:41:45;33.00;47.50
21355;DHT22;10835;50.148;19.760;2022-09-09T09:44:23;33.40;46.20
21355;DHT22;10835;50.148;19.760;2022-09-09T09:47:07;33.60;45.70
21355;DHT22;10835;50.148;19.760;2022-09-09T09:49:36;33.80;45.50
21355;DHT22;10835;50.148;19.760;2022-09-09T09:52:05;33.60;45.70
21355;DHT22;10835;50.148;19.760;2022-09-09T09:54:38;33.70;45.10
21355;DHT22;10835;50.148;19.760;2022-09-09T09:57:09;34.20;43.30
21355;DHT22;10835;50.148;19.760;2022-09-09T09:59:39;34.20;41.30
21355;DHT22;10835;50.148;19.760;2022-09-09T10:02:37;34.30;42.40
21355;DHT22;10835;50.148;19.760;2022-09-09T10:05:14;34.00;42.50
21355;DHT22;10835;50.148;19.760;2022-09-09T10:07:46;33.90;41.30
21355;DHT22;10835;50.148;19.760;2022-09-09T10:10:21;34.20;42.50
21355;DHT22;10835;50.148;19.760;2022-09-09T10:12:59;33.90;42.10
21355;DHT22;10835;50.148;19.760;2022-09-09T10:15:35;33.20;42.80
21355;DHT22;10835;50.148;19.760;2022-09-09T10:18:20;33.00;42.20
21355;DHT22;10835;50.148;19.760;2022-09-09T10:20:54;33.30;44.50
21355;DHT22;10835;50.148;19.760;2022-09-09T10:23:41;33.40;43.00
21355;DHT22;10835;50.148;19.760;2022-09-09T10:26:26;33.90;42.10
21355;DHT22;10835;50.148;19.760;2022-09-09T10:29:08;33.90;42.40
21355;DHT22;10835;50.148;19.760;2022-09-09T10:31:43;34.10;40.70
21355;DHT22;10835;50.148;19.760;2022-09-09T10:34:25;34.40;41.30
21355;DHT22;10835;50.148;19.760;2022-09-09T10:37:00;34.80;41.50
21355;DHT22;10835;50.148;19.760;2022-09-09T10:39:36;35.10;40.70
21355;DHT22;10835;50.148;19.760;2022-09-09T10:42:11;35.30;42.40
21355;DHT22;10835;50.148;19.760;2022-09-09T10:44:53;34.90;40.80
21355;DHT22;10835;50.148;19.760;2022-09-09T10:47:37;35.00;40.30
21355;DHT22;10835;50.148;19.760;2022-09-09T10:50:28;35.00;39.60
21355;DHT22;10835;50.148;19.760;2022-09-09T10:53:24;34.00;40.70
21355;DHT22;10835;50.148;19.760;2022-09-09T10:56:00;34.20;40.60
21355;DHT22;10835;50.148;19.760;2022-09-09T10:58:33;33.90;39.80
21355;DHT22;10835;50.148;19.760;2022-09-09T11:01:11;33.90;40.40
21355;DHT22;10835;50.148;19.760;2022-09-09T11:03:42;33.90;40.80
21355;DHT22;10835;50.148;19.760;2022-09-09T11:06:14;33.80;41.70
21355;DHT22;10835;50.148;19.760;2022-09-09T11:08:45;33.70;42.60
21355;DHT22;10835;50.148;19.760;2022-09-09T11:11:16;34.20;40.70
21355;DHT22;10835;50.148;19.760;2022-09-09T11:13:49;34.10;40.90
21355;DHT22;10835;50.148;19.760;2022-09-09T11:16:25;33.80;40.50
21355;DHT22;10835;50.148;19.760;2022-09-09T11:19:03;33.40;41.20
21355;DHT22;10835;50.148;19.760;2022-09-09T11:21:39;33.50;40.80
21355;DHT22;10835;50.148;19.760;2022-09-09T11:24:14;34.00;40.30
21355;DHT22;10835;50.148;19.760;2022-09-09T11:26:48;33.90;40.00
21355;DHT22;10835;50.148;19.760;2022-09-09T11:29:36;33.90;39.40
21355;DHT22;10835;50.148;19.760;2022-09-09T11:32:20;34.00;39.10
21355;DHT22;10835;50.148;19.760;2022-09-09T11:34:59;34.10;39.90
21355;DHT22;10835;50.148;19.760;2022-09-09T11:37:45;34.60;39.00
21355;DHT22;10835;50.148;19.760;2022-09-09T11:40:23;35.10;38.70
21355;DHT22;10835;50.148;19.760;2022-09-09T11:43:02;34.90;38.00
21355;DHT22;10835;50.148;19.760;2022-09-09T11:45:34;35.30;38.90
21355;DHT22;10835;50.148;19.760;2022-09-09T11:48:04;35.20;36.90
21355;DHT22;10835;50.148;19.760;2022-09-09T11:50:35;35.30;38.10
21355;DHT22;10835;50.148;19.760;2022-09-09T11:53:20;35.60;38.00
21355;DHT22;10835;50.148;19.760;2022-09-09T11:56:26;35.60;38.50
21355;DHT22;10835;50.148;19.760;2022-09-09T11:58:58;35.60;36.50
21355;DHT22;10835;50.148;19.760;2022-09-09T12:01:34;35.40;37.60
21355;DHT22;10835;50.148;19.760;2022-09-09T12:04:28;35.40;37.40
21355;DHT22;10835;50.148;19.760;2022-09-09T12:06:59;35.60;37.60
21355;DHT22;10835;50.148;19.760;2022-09-09T12:09:49;35.60;35.20
21355;DHT22;10835;50.148;19.760;2022-09-09T12:12:25;35.70;37.10
21355;DHT22;10835;50.148;19.760;2022-09-09T12:14:59;35.70;36.50
21355;DHT22;10835;50.148;19.760;2022-09-09T12:17:30;35.10;38.30
21355;DHT22;10835;50.148;19.760;2022-09-09T12:20:02;35.00;37.10
21355;DHT22;10835;50.148;19.760;2022-09-09T12:22:40;34.70;38.80
21355;DHT22;10835;50.148;19.760;2022-09-09T12:25:18;34.40;38.70
21355;DHT22;10835;50.148;19.760;2022-09-09T12:27:59;34.80;37.00
21355;DHT22;10835;50.148;19.760;2022-09-09T12:30:33;34.80;37.40
21355;DHT22;10835;50.148;19.760;2022-09-09T12:33:10;34.80;39.10
21355;DHT22;10835;50.148;19.760;2022-09-09T12:35:41;34.70;39.50
21355;DHT22;10835;50.148;19.760;2022-09-09T12:38:13;34.80;40.30
21355;DHT22;10835;50.148;19.760;2022-09-09T12:40:55;35.20;39.50
21355;DHT22;10835;50.148;19.760;2022-09-09T12:43:27;35.20;39.30
21355;DHT22;10835;50.148;19.760;2022-09-09T12:45:58;35.10;39.60
21355;DHT22;10835;50.148;19.760;2022-09-09T12:48:32;35.20;38.40
21355;DHT22;10835;50.148;19.760;2022-09-09T12:51:02;35.20;39.50
21355;DHT22;10835;50.148;19.760;2022-09-09T12:53:34;34.90;39.40
21355;DHT22;10835;50.148;19.760;2022-09-09T12:56:06;34.70;39.00
21355;DHT22;10835;50.148;19.760;2022-09-09T12:58:36;34.70;39.60
21355;DHT22;10835;50.148;19.760;2022-09-09T13:01:05;34.40;39.70
21355;DHT22;10835;50.148;19.760;2022-09-09T13:03:42;34.10;39.40
21355;DHT22;10835;50.148;19.760;2022-09-09T13:06:17;34.00;39.60
21355;DHT22;10835;50.148;19.760;2022-09-09T13:08:50;34.30;40.30
21355;DHT22;10835;50.148;19.760;2022-09-09T13:11:22;34.70;39.50
21355;DHT22;10835;50.148;19.760;2022-09-09T13:13:52;34.10;39.50
21355;DHT22;10835;50.148;19.760;2022-09-09T13:16:25;34.20;40.70
21355;DHT22;10835;50.148;19.760;2022-09-09T13:18:58;34.70;39.40
21355;DHT22;10835;50.148;19.760;2022-09-09T13:21:34;34.90;38.80
21355;DHT22;10835;50.148;19.760;2022-09-09T13:24:03;34.80;39.40
21355;DHT22;10835;50.148;19.760;2022-09-09T13:26:35;34.80;39.70
21355;DHT22;10835;50.148;19.760;2022-09-09T13:29:16;34.70;39.70
21355;DHT22;10835;50.148;19.760;2022-09-09T13:31:50;34.70;38.20
21355;DHT22;10835;50.148;19.760;2022-09-09T13:34:27;34.60;38.90
21355;DHT22;10835;50.148;19.760;2022-09-09T13:36:59;34.40;39.20
21355;DHT22;10835;50.148;19.760;2022-09-09T13:39:30;34.90;40.40
21355;DHT22;10835;50.148;19.760;2022-09-09T13:41:59;34.90;39.40
21355;DHT22;10835;50.148;19.760;2022-09-09T13:44:42;34.70;39.50
21355;DHT22;10835;50.148;19.760;2022-09-09T13:47:30;34.50;38.50
21355;DHT22;10835;50.148;19.760;2022-09-09T13:50:17;34.70;39.20
21355;DHT22;10835;50.148;19.760;2022-09-09T13:52:46;34.10;39.10
21355;DHT22;10835;50.148;19.760;2022-09-09T13:55:17;34.00;40.70
21355;DHT22;10835;50.148;19.760;2022-09-09T13:57:53;34.30;40.30
21355;DHT22;10835;50.148;19.760;2022-09-09T14:00:23;34.40;40.10
21355;DHT22;10835;50.148;19.760;2022-09-09T14:02:52;34.20;39.60
21355;DHT22;10835;50.148;19.760;2022-09-09T14:05:23;34.40;40.20
21355;DHT22;10835;50.148;19.760;2022-09-09T14:07:52;34.60;39.90
21355;DHT22;10835;50.148;19.760;2022-09-09T14:10:20;34.80;38.20
21355;DHT22;10835;50.148;19.760;2022-09-09T14:12:49;34.50;39.60
21355;DHT22;10835;50.148;19.760;2022-09-09T14:15:18;34.40;38.60
21355;DHT22;10835;50.148;19.760;2022-09-09T14:17:46;34.60;39.70
21355;DHT22;10835;50.148;19.760;2022-09-09T14:20:15;34.90;40.90
21355;DHT22;10835;50.148;19.760;2022-09-09T14:22:44;35.10;40.50
21355;DHT22;10835;50.148;19.760;2022-09-09T14:25:15;35.30;39.70
21355;DHT22;10835;50.148;19.760;2022-09-09T14:27:43;35.00;39.20
21355;DHT22;10835;50.148;19.760;2022-09-09T14:30:15;34.80;39.50
21355;DHT22;10835;50.148;19.760;2022-09-09T14:32:45;35.00;39.50
21355;DHT22;10835;50.148;19.760;2022-09-09T14:35:13;34.90;38.70
21355;DHT22;10835;50.148;19.760;2022-09-09T14:37:43;35.00;39.20
21355;DHT22;10835;50.148;19.760;2022-09-09T14:40:17;35.10;39.00
21355;DHT22;10835;50.148;19.760;2022-09-09T14:42:45;35.30;39.00
21355;DHT22;10835;50.148;19.760;2022-09-09T14:45:13;35.40;39.40
21355;DHT22;10835;50.148;19.760;2022-09-09T14:47:41;35.20;39.30
21355;DHT22;10835;50.148;19.760;2022-09-09T14:50:11;35.30;39.50
21355;DHT22;10835;50.148;19.760;2022-09-09T14:52:42;35.40;40.20
21355;DHT22;10835;50.148;19.760;2022-09-09T14:55:11;35.50;40.70
21355;DHT22;10835;50.148;19.760;2022-09-09T14:57:41;35.10;39.70
21355;DHT22;10835;50.148;19.760;2022-09-09T15:00:10;35.20;39.20
21355;DHT22;10835;50.148;19.760;2022-09-09T15:02:39;35.00;39.50
21355;DHT22;10835;50.148;19.760;2022-09-09T15:05:08;35.10;39.90
21355;DHT22;10835;50.148;19.760;2022-09-09T15:07:38;35.20;40.30
21355;DHT22;10835;50.148;19.760;2022-09-09T15:10:10;35.20;41.60
21355;DHT22;10835;50.148;19.760;2022-09-09T15:12:40;34.80;40.20
21355;DHT22;10835;50.148;19.760;2022-09-09T15:15:09;34.40;40.70
21355;DHT22;10835;50.148;19.760;2022-09-09T15:17:37;34.50;41.30
21355;DHT22;10835;50.148;19.760;2022-09-09T15:20:06;34.20;40.10
21355;DHT22;10835;50.148;19.760;2022-09-09T15:22:34;34.70;41.60
21355;DHT22;10835;50.148;19.760;2022-09-09T15:25:07;34.40;40.80
21355;DHT22;10835;50.148;19.760;2022-09-09T15:27:35;34.60;40.80
21355;DHT22;10835;50.148;19.760;2022-09-09T15:30:06;34.40;40.50
21355;DHT22;10835;50.148;19.760;2022-09-09T15:32:35;34.10;39.80
21355;DHT22;10835;50.148;19.760;2022-09-09T15:35:06;34.30;40.60
21355;DHT22;10835;50.148;19.760;2022-09-09T15:37:35;34.20;40.50
21355;DHT22;10835;50.148;19.760;2022-09-09T15:40:06;34.60;40.90
21355;DHT22;10835;50.148;19.760;2022-09-09T15:42:34;34.70;40.60
21355;DHT22;10835;50.148;19.760;2022-09-09T15:45:02;34.40;39.40
21355;DHT22;10835;50.148;19.760;2022-09-09T15:47:33;34.10;39.60
21355;DHT22;10835;50.148;19.760;2022-09-09T15:50:01;34.20;41.20
21355;DHT22;10835;50.148;19.760;2022-09-09T15:52:29;34.30;40.60
21355;DHT22;10835;50.148;19.760;2022-09-09T15:55:01;34.10;40.00